Time;durP1;ratioP1;P1;durP2;ratioP2;P2;SDS_P1;SDS_P2;PMS_P1;PMS_P2;Temp;Humidity;BMP_temperature;BMP_pressure;BME280_temperature;BME280_humidity;BME280_pressure;Samples;Min_cycle;Max_cycle;Signal;HPM_P1;HPM_P2
2022/05/09 00:00:32;;;;;;;18.50;4.88;;;;;;;9.47;100.00;102661.75;5281197;28;20016;-69
2022/05/09 00:03:03;;;;;;;15.23;5.15;;;;;;;9.42;100.00;102660.38;5267645;28;20051;-68
2022/05/09 00:05:33;;;;;;;15.75;5.10;;;;;;;9.37;100.00;102650.00;5272898;28;20016;-68
2022/05/09 00:08:04;;;;;;;14.05;4.93;;;;;;;9.30;100.00;102646.94;5288994;28;20043;-69
2022/05/09 00:10:35;;;;;;;13.60;4.93;;;;;;;9.24;100.00;102657.28;5268158;28;20024;-69
2022/05/09 00:13:05;;;;;;;11.65;5.32;;;;;;;9.16;100.00;102651.63;5267809;28;20385;-68
2022/05/09 00:15:36;;;;;;;15.05;5.10;;;;;;;9.04;100.00;102648.88;5273525;28;20055;-68
2022/05/09 00:18:07;;;;;;;17.25;5.43;;;;;;;8.97;100.00;102658.31;5281039;28;20027;-68
2022/05/09 00:20:37;;;;;;;17.10;5.10;;;;;;;8.99;100.00;102653.72;5267384;28;20024;-69
2022/05/09 00:23:07;;;;;;;14.82;4.78;;;;;;;9.04;100.00;102648.88;5267688;28;20020;-69
2022/05/09 00:25:38;;;;;;;17.83;4.88;;;;;;;9.06;100.00;102649.59;5266990;28;20024;-68
2022/05/09 00:28:09;;;;;;;17.30;5.35;;;;;;;9.06;100.00;102646.94;5270990;28;20073;-69
2022/05/09 00:30:39;;;;;;;10.15;4.65;;;;;;;9.02;100.00;102652.63;5276510;28;20016;-69
2022/05/09 00:33:10;;;;;;;7.55;4.97;;;;;;;8.96;100.00;102650.41;5286344;28;20031;-68
2022/05/09 00:35:44;;;;;;;17.10;5.35;;;;;;;8.92;100.00;102643.56;5288502;28;20094;-69
2022/05/09 00:38:14;;;;;;;11.50;5.07;;;;;;;8.90;100.00;102645.50;5274584;28;20397;-68
2022/05/09 00:41:28;;;;;;;12.52;5.00;;;;;;;8.88;100.00;102647.41;5287483;28;20495;-68
2022/05/09 00:43:38;;;;;;;13.65;4.82;;;;;;;8.82;100.00;102635.31;5288340;28;20020;-69
2022/05/09 00:46:09;;;;;;;9.98;4.82;;;;;;;8.77;100.00;102635.66;5286770;28;20027;-68
2022/05/09 00:48:39;;;;;;;11.02;5.00;;;;;;;8.68;100.00;102640.81;5288010;28;20026;-68
2022/05/09 00:51:12;;;;;;;10.45;5.15;;;;;;;8.59;100.00;102636.16;5274162;28;20031;-68
2022/05/09 00:53:43;;;;;;;16.98;4.70;;;;;;;8.48;100.00;102640.44;5287000;28;20437;-68
2022/05/09 00:56:19;;;;;;;18.73;6.03;;;;;;;8.40;100.00;102633.94;5275329;28;20102;-68
2022/05/09 00:58:56;;;;;;;19.00;5.28;;;;;;;8.27;100.00;102634.75;5274492;28;20481;-69
2022/05/09 01:01:27;;;;;;;19.25;5.43;;;;;;;8.20;100.00;102624.59;5286240;28;20415;-69
2022/05/09 01:04:06;;;;;;;18.13;6.50;;;;;;;8.16;100.00;102629.28;5287889;28;20020;-69
2022/05/09 01:06:38;;;;;;;18.73;5.75;;;;;;;8.12;100.00;102622.44;5286674;28;20376;-69
2022/05/09 01:09:10;;;;;;;16.08;6.05;;;;;;;8.09;100.00;102622.69;5288089;28;20374;-69
2022/05/09 01:11:43;;;;;;;12.90;5.15;;;;;;;8.10;100.00;102627.06;5287722;28;20424;-69
2022/05/09 01:14:19;;;;;;;14.52;5.25;;;;;;;8.14;100.00;102620.53;5279877;28;20061;-69
2022/05/09 01:16:49;;;;;;;14.35;5.50;;;;;;;8.19;100.00;102622.91;5271500;28;20032;-69
2022/05/09 01:19:36;;;;;;;15.10;6.10;;;;;;;8.23;100.00;102619.91;5277883;28;20025;-69
2022/05/09 01:22:28;;;;;;;16.92;5.38;;;;;;;8.29;100.00;102627.47;5274663;28;20016;-69
2022/05/09 01:25:02;;;;;;;13.15;5.15;;;;;;;8.31;100.00;102619.34;5268914;28;20024;-69
2022/05/09 01:27:35;;;;;;;14.60;5.38;;;;;;;8.33;100.00;102617.41;5266349;28;20028;-70
2022/05/09 01:30:43;;;;;;;15.63;6.50;;;;;;;8.35;100.00;102617.31;5266291;28;20023;-69
2022/05/09 01:33:32;;;;;;;19.23;5.97;;;;;;;8.35;100.00;102612.81;5272537;28;20036;-69
2022/05/09 01:36:15;;;;;;;16.55;5.70;;;;;;;8.36;100.00;102611.88;5284805;28;20488;-69
2022/05/09 01:39:06;;;;;;;15.82;5.35;;;;;;;8.41;100.00;102604.38;5266119;28;20027;-68
2022/05/09 01:41:40;;;;;;;19.25;5.93;;;;;;;8.41;100.00;102607.06;5274848;28;20027;-69
2022/05/09 01:44:12;;;;;;;16.20;5.65;;;;;;;8.39;100.00;102611.69;5287015;28;20090;-69
2022/05/09 01:49:39;;;;;;;14.70;5.95;;;;;;;8.32;100.00;102605.00;5265568;28;20035;-69
2022/05/09 01:52:14;;;;;;;20.90;6.13;;;;;;;8.27;100.00;102610.66;5281242;28;20028;-68
2022/05/09 01:54:45;;;;;;;16.92;6.20;;;;;;;8.20;100.00;102608.56;5277193;28;20027;-69
2022/05/09 01:57:16;;;;;;;13.95;5.53;;;;;;;8.09;100.00;102603.97;5284824;28;20392;-69
2022/05/09 01:59:46;;;;;;;14.50;5.43;;;;;;;8.02;100.00;102610.69;5291576;28;20098;-68
2022/05/09 02:02:20;;;;;;;17.05;6.05;;;;;;;7.97;100.00;102618.16;5291204;28;20024;-69
2022/05/09 02:04:51;;;;;;;15.77;6.28;;;;;;;7.89;100.00;102618.72;5291285;28;20020;-68
2022/05/09 02:07:23;;;;;;;14.93;6.20;;;;;;;7.83;100.00;102619.13;5291295;28;20077;-68
2022/05/09 02:09:54;;;;;;;12.13;5.40;;;;;;;7.79;100.00;102614.97;5277427;28;20039;-68
2022/05/09 02:12:24;;;;;;;13.82;6.07;;;;;;;7.75;100.00;102616.13;5290829;28;20027;-69
2022/05/09 02:14:55;;;;;;;16.13;6.03;;;;;;;7.71;100.00;102612.78;5283508;28;20016;-69
2022/05/09 02:17:26;;;;;;;16.42;5.82;;;;;;;7.71;100.00;102607.47;5291213;28;20024;-69
2022/05/09 02:19:58;;;;;;;17.55;5.78;;;;;;;7.68;100.00;102612.13;5287760;28;20062;-69
2022/05/09 02:22:29;;;;;;;16.60;5.55;;;;;;;7.63;100.00;102609.81;5269980;28;20028;-69
2022/05/09 02:24:59;;;;;;;20.58;6.10;;;;;;;7.56;100.00;102611.16;5287540;28;20084;-68
2022/05/09 02:27:30;;;;;;;21.85;6.90;;;;;;;7.46;100.00;102602.06;5278692;28;20031;-69
2022/05/09 02:30:03;;;;;;;15.63;6.10;;;;;;;7.38;100.00;102607.94;5268445;28;20028;-68
2022/05/09 02:32:33;;;;;;;19.60;7.30;;;;;;;7.31;100.00;102608.44;5283406;28;20039;-68
2022/05/09 02:35:04;;;;;;;13.32;6.25;;;;;;;7.22;100.00;102604.56;5283035;28;20520;-68
2022/05/09 02:37:34;;;;;;;17.20;6.32;;;;;;;7.11;100.00;102613.28;5269243;28;20438;-68
2022/05/09 02:40:06;;;;;;;19.02;6.63;;;;;;;7.03;100.00;102615.59;5268236;28;20477;-68
2022/05/09 02:42:37;;;;;;;17.13;7.40;;;;;;;6.97;100.00;102616.84;5286397;28;20035;-68
2022/05/09 02:45:08;;;;;;;18.88;7.40;;;;;;;6.92;100.00;102613.59;5279974;28;20052;-68
2022/05/09 02:50:26;;;;;;;15.20;7.50;;;;;;;6.83;100.00;102611.56;5289449;28;20027;-68
2022/05/09 02:52:57;;;;;;;20.08;6.07;;;;;;;6.84;100.00;102607.09;5277819;28;20030;-68
2022/05/09 02:55:28;;;;;;;15.68;6.22;;;;;;;6.89;100.00;102612.97;5274316;28;20019;-68
2022/05/09 02:58:00;;;;;;;16.08;5.90;;;;;;;6.92;100.00;102607.41;5278557;28;20034;-68
2022/05/09 03:00:32;;;;;;;16.25;6.28;;;;;;;6.90;100.00;102604.88;5276385;28;20081;-69
2022/05/09 03:05:52;;;;;;;20.48;5.95;;;;;;;6.92;100.00;102610.09;5276511;28;20384;-69
2022/05/09 03:08:23;;;;;;;16.73;6.40;;;;;;;6.83;100.00;102608.91;5274130;28;20024;-68
2022/05/09 03:10:53;;;;;;;22.23;6.95;;;;;;;6.70;100.00;102600.81;5268611;28;20443;-68
2022/05/09 03:13:24;;;;;;;18.85;7.43;;;;;;;6.56;100.00;102594.66;5270022;28;20040;-68
2022/05/09 03:15:55;;;;;;;21.88;8.00;;;;;;;6.47;100.00;102604.06;5286329;28;20031;-68
2022/05/09 03:18:26;;;;;;;19.33;7.55;;;;;;;6.43;100.00;102599.91;5289828;28;20477;-68
2022/05/09 03:20:56;;;;;;;19.05;8.00;;;;;;;6.46;100.00;102602.38;5277478;28;20038;-68
2022/05/09 03:23:27;;;;;;;19.58;6.53;;;;;;;6.43;100.00;102600.78;5282371;28;20020;-68
2022/05/09 03:25:57;;;;;;;20.77;6.82;;;;;;;6.36;100.00;102594.09;5281458;28;20114;-68
2022/05/09 03:28:28;;;;;;;19.52;7.50;;;;;;;6.31;100.00;102595.34;5282653;28;20032;-68
2022/05/09 03:31:00;;;;;;;20.33;7.50;;;;;;;6.27;100.00;102593.81;5282622;28;20073;-69
2022/05/09 03:33:30;;;;;;;14.00;6.60;;;;;;;6.25;100.00;102590.41;5289372;28;20346;-68
2022/05/09 03:36:01;;;;;;;15.57;6.78;;;;;;;6.27;100.00;102599.13;5287175;28;20068;-69
2022/05/09 03:38:32;;;;;;;21.73;7.55;;;;;;;6.30;100.00;102604.28;5268208;28;20537;-69
2022/05/09 03:41:02;;;;;;;19.45;7.63;;;;;;;6.27;100.00;102597.31;5272092;28;20111;-68
2022/05/09 03:43:33;;;;;;;23.58;7.65;;;;;;;6.22;100.00;102597.63;5277167;28;20077;-69
2022/05/09 03:46:03;;;;;;;19.88;7.25;;;;;;;6.19;100.00;102599.63;5267613;28;20320;-68
2022/05/09 03:48:34;;;;;;;23.48;8.35;;;;;;;6.12;100.00;102595.63;5280401;28;20075;-68
2022/05/09 03:51:05;;;;;;;23.48;8.38;;;;;;;6.06;100.00;102599.50;5268980;28;20028;-68
2022/05/09 03:53:36;;;;;;;24.45;8.32;;;;;;;6.02;100.00;102597.13;5268235;28;20028;-69
2022/05/09 03:56:07;;;;;;;24.83;9.13;;;;;;;5.94;100.00;102595.81;5281415;28;20028;-68
2022/05/09 03:58:38;;;;;;;22.40;8.35;;;;;;;5.92;100.00;102596.84;5279956;28;20031;-68
2022/05/09 04:01:08;;;;;;;23.63;7.95;;;;;;;5.91;100.00;102590.66;5276820;28;20058;-69
2022/05/09 04:03:39;;;;;;;23.02;7.70;;;;;;;5.91;100.00;102593.31;5275288;28;20485;-68
2022/05/09 04:06:09;;;;;;;25.83;9.63;;;;;;;5.85;100.00;102598.13;5282534;28;20023;-67
2022/05/09 04:08:40;;;;;;;22.17;9.35;;;;;;;5.81;100.00;102607.25;5275153;28;20059;-68
2022/05/09 04:11:10;;;;;;;23.30;10.00;;;;;;;5.78;100.00;102595.00;5276792;28;20028;-69
2022/05/09 04:13:41;;;;;;;23.45;9.05;;;;;;;5.79;100.00;102595.84;5267482;28;20111;-68
2022/05/09 04:19:01;;;;;;;16.58;8.18;;;;;;;5.84;100.00;102597.28;5279921;28;20024;-68
2022/05/09 04:21:32;;;;;;;18.70;8.45;;;;;;;5.82;100.00;102585.84;5283425;28;20492;-68
2022/05/09 04:24:03;;;;;;;19.42;8.68;;;;;;;5.80;100.00;102586.91;5278297;28;20023;-67
2022/05/09 04:26:33;;;;;;;27.45;8.13;;;;;;;5.78;100.00;102583.50;5267107;28;20016;-68
2022/05/09 04:29:04;;;;;;;21.10;8.45;;;;;;;5.79;100.00;102583.38;5279208;28;20051;-68
2022/05/09 04:31:35;;;;;;;27.27;9.40;;;;;;;5.79;100.00;102588.72;5274670;28;20039;-68
2022/05/09 04:34:05;;;;;;;25.27;9.63;;;;;;;5.81;100.00;102588.63;5288143;28;20031;-68
2022/05/09 04:36:38;;;;;;;32.00;9.93;;;;;;;5.83;100.00;102592.91;5287790;28;20106;-67
2022/05/09 04:39:09;;;;;;;22.40;8.18;;;;;;;5.85;100.00;102588.34;5274379;28;20469;-67
2022/05/09 04:41:39;;;;;;;24.95;9.05;;;;;;;5.90;100.00;102590.72;5279034;28;20036;-68
2022/05/09 04:44:10;;;;;;;26.13;9.05;;;;;;;5.95;100.00;102588.66;5266807;28;20040;-67
2022/05/09 04:46:40;;;;;;;21.98;8.85;;;;;;;6.00;100.00;102588.38;5276937;28;20031;-68
2022/05/09 04:49:10;;;;;;;29.08;8.88;;;;;;;6.03;100.00;102590.88;5284149;28;20027;-68
2022/05/09 04:51:41;;;;;;;25.63;9.25;;;;;;;6.05;100.00;102588.97;5278534;28;20023;-67
2022/05/09 04:54:11;;;;;;;19.55;9.18;;;;;;;6.08;100.00;102592.31;5287710;28;20034;-67
2022/05/09 04:56:42;;;;;;;22.77;9.23;;;;;;;6.13;100.00;102590.22;5287884;28;20168;-67
2022/05/09 04:59:12;;;;;;;22.23;9.48;;;;;;;6.18;100.00;102579.28;5273702;28;20073;-68
2022/05/09 05:01:44;;;;;;;29.48;9.35;;;;;;;6.23;100.00;102586.03;5274046;28;20481;-67
2022/05/09 05:04:17;;;;;;;20.52;8.98;;;;;;;6.28;100.00;102579.56;5274389;28;20035;-68
2022/05/09 05:06:47;;;;;;;19.75;8.88;;;;;;;6.35;100.00;102589.72;5281974;28;20500;-67
2022/05/09 05:09:18;;;;;;;17.48;8.60;;;;;;;6.44;100.00;102589.16;5278005;28;20032;-67
2022/05/09 05:11:49;;;;;;;19.10;8.45;;;;;;;6.55;100.00;102592.94;5269553;28;20489;-68
2022/05/09 05:14:19;;;;;;;26.00;9.25;;;;;;;6.67;100.00;102594.81;5280673;28;20481;-68
2022/05/09 05:17:02;;;;;;;20.42;8.50;;;;;;;6.77;100.00;102587.94;5283070;28;20030;-69
2022/05/09 05:19:37;;;;;;;18.52;8.50;;;;;;;6.89;100.00;102591.63;5280058;28;20012;-68
2022/05/09 05:22:08;;;;;;;17.95;7.82;;;;;;;7.01;100.00;102598.81;5280240;28;20392;-68
2022/05/09 05:24:38;;;;;;;22.75;8.60;;;;;;;7.14;100.00;102596.22;5273376;28;20492;-68
2022/05/09 05:27:10;;;;;;;22.10;8.20;;;;;;;7.25;100.00;102588.34;5277792;28;20039;-67
2022/05/09 05:29:41;;;;;;;23.65;9.43;;;;;;;7.40;100.00;102598.00;5283126;28;20428;-67
2022/05/09 05:32:16;;;;;;;22.77;9.10;;;;;;;7.60;100.00;102585.97;5287046;27;20027;-67
2022/05/09 05:34:48;;;;;;;22.23;8.02;;;;;;;7.82;100.00;102581.81;5287017;28;20023;-68
2022/05/09 05:37:19;;;;;;;29.25;8.80;;;;;;;8.01;100.00;102583.09;5287196;28;20500;-67
2022/05/09 05:39:49;;;;;;;18.48;8.20;;;;;;;8.23;100.00;102581.59;5265847;28;20020;-67
2022/05/09 05:42:20;;;;;;;20.23;7.55;;;;;;;8.45;100.00;102587.16;5280733;28;20015;-68
2022/05/09 05:44:50;;;;;;;19.20;7.45;;;;;;;8.66;100.00;102587.44;5285357;28;20105;-67
2022/05/09 05:47:22;;;;;;;23.70;7.63;;;;;;;8.85;100.00;102584.28;5271022;28;20028;-68
2022/05/09 05:49:53;;;;;;;20.50;7.72;;;;;;;9.08;100.00;102586.06;5265949;28;20077;-68
2022/05/09 05:52:24;;;;;;;22.65;8.65;;;;;;;9.49;100.00;102584.81;5279649;28;20028;-68
2022/05/09 05:54:54;;;;;;;18.23;7.35;;;;;;;10.29;100.00;102583.97;5277510;28;20023;-68
2022/05/09 05:57:27;;;;;;;19.33;7.43;;;;;;;11.19;100.00;102581.97;5267585;28;20110;-68
2022/05/09 06:00:02;;;;;;;22.77;7.50;;;;;;;12.02;100.00;102575.78;5279430;28;20034;-68
2022/05/09 06:02:33;;;;;;;20.75;8.15;;;;;;;12.92;100.00;102583.03;5287043;28;20069;-68
2022/05/09 06:05:06;;;;;;;18.88;8.43;;;;;;;13.58;100.00;102579.69;5286599;28;20028;-68
2022/05/09 06:07:38;;;;;;;24.85;7.75;;;;;;;13.98;100.00;102574.91;5286707;28;20034;-68
2022/05/09 06:10:11;;;;;;;19.30;8.77;;;;;;;14.17;100.00;102576.69;5273034;28;20024;-68
2022/05/09 06:12:41;;;;;;;20.00;9.02;;;;;;;14.43;100.00;102584.97;5275818;28;20030;-69
2022/05/09 06:15:28;;;;;;;20.52;8.57;;;;;;;14.57;100.00;102582.81;5271930;28;20491;-68
2022/05/09 06:18:00;;;;;;;23.80;8.25;;;;;;;15.03;100.00;102579.94;5280338;28;20019;-68
2022/05/09 06:20:35;;;;;;;26.15;9.13;;;;;;;15.16;100.00;102584.09;5277747;28;20112;-68
2022/05/09 06:23:08;;;;;;;30.02;9.40;;;;;;;15.68;100.00;102568.03;5265613;28;20039;-70
2022/05/09 06:25:40;;;;;;;26.33;8.57;;;;;;;15.89;100.00;102578.47;5276911;28;20118;-68
2022/05/09 06:28:11;;;;;;;15.00;6.93;;;;;;;15.76;100.00;102573.47;5281555;28;20485;-68
2022/05/09 06:30:43;;;;;;;16.83;7.65;;;;;;;15.77;100.00;102577.91;5277672;28;20030;-68
2022/05/09 06:33:21;;;;;;;21.58;8.07;;;;;;;16.42;100.00;102572.88;5273085;28;20035;-68
2022/05/09 06:35:53;;;;;;;19.45;8.27;;;;;;;16.64;100.00;102578.69;5284855;28;20454;-68
2022/05/09 06:38:25;;;;;;;18.52;7.63;;;;;;;17.07;100.00;102581.22;5265499;28;20024;-68
2022/05/09 06:40:56;;;;;;;20.63;8.23;;;;;;;17.46;100.00;102577.81;5268071;28;20020;-68
2022/05/09 06:43:26;;;;;;;21.55;7.03;;;;;;;17.45;92.99;102588.84;5277804;28;20027;-68
2022/05/09 06:45:57;;;;;;;19.33;7.60;;;;;;;17.88;98.30;102581.41;5268983;28;20397;-68
2022/05/09 06:48:28;;;;;;;20.02;7.35;;;;;;;18.52;94.08;102579.47;5281369;28;20026;-69
2022/05/09 06:50:59;;;;;;;19.35;8.20;;;;;;;17.42;99.64;102572.91;5274058;27;20035;-69
2022/05/09 06:53:29;;;;;;;18.63;7.22;;;;;;;17.33;100.00;102583.78;5281183;27;20365;-69
2022/05/09 06:56:00;;;;;;;22.45;7.60;;;;;;;17.58;98.03;102579.19;5279995;28;20430;-69
2022/05/09 06:58:31;;;;;;;18.48;7.05;;;;;;;17.61;95.60;102575.28;5280378;28;20490;-69
2022/05/09 07:01:12;;;;;;;16.50;7.55;;;;;;;18.13;92.66;102574.06;5279687;28;20193;-69
2022/05/09 07:03:43;;;;;;;19.15;6.57;;;;;;;18.51;85.43;102575.94;5269886;28;20477;-69
2022/05/09 07:06:16;;;;;;;14.68;6.40;;;;;;;18.83;87.77;102565.97;5286730;28;20053;-69
2022/05/09 07:08:46;;;;;;;14.95;7.15;;;;;;;18.93;82.29;102565.72;5273520;28;20041;-69
2022/05/09 07:11:17;;;;;;;18.58;7.03;;;;;;;19.13;80.44;102575.09;5287343;28;20024;-70
2022/05/09 07:13:48;;;;;;;17.05;7.03;;;;;;;19.35;80.14;102576.13;5281019;28;20485;-69
2022/05/09 07:16:19;;;;;;;12.48;6.05;;;;;;;19.61;85.48;102573.88;5285863;28;20027;-69
2022/05/09 07:18:49;;;;;;;17.23;6.88;;;;;;;19.56;78.64;102578.16;5272212;28;20216;-70
2022/05/09 07:21:20;;;;;;;17.77;7.15;;;;;;;19.27;82.55;102574.28;5277650;28;20107;-70
2022/05/09 07:23:50;;;;;;;21.98;7.72;;;;;;;19.47;81.96;102579.25;5278463;28;20072;-69
2022/05/09 07:26:21;;;;;;;17.20;7.15;;;;;;;19.69;79.67;102572.97;5266346;28;20082;-69
2022/05/09 07:28:51;;;;;;;16.98;6.47;;;;;;;19.82;79.27;102578.59;5266017;28;20221;-69
2022/05/09 07:31:22;;;;;;;20.77;7.28;;;;;;;19.94;77.53;102581.75;5283921;28;20020;-69
2022/05/09 07:33:52;;;;;;;13.70;7.07;;;;;;;19.72;76.35;102575.31;5287791;28;20055;-69
2022/05/09 07:36:23;;;;;;;17.75;6.50;;;;;;;19.48;84.85;102580.94;5283666;28;20023;-69
2022/05/09 07:38:53;;;;;;;20.95;6.80;;;;;;;19.76;74.93;102573.91;5268045;28;20103;-69
2022/05/09 07:41:23;;;;;;;16.77;6.55;;;;;;;20.51;71.85;102574.78;5287006;28;20366;-71
2022/05/09 07:43:54;;;;;;;19.48;7.60;;;;;;;20.69;75.61;102575.25;5286891;28;20110;-70
2022/05/09 07:46:24;;;;;;;16.88;6.05;;;;;;;20.81;74.41;102573.69;5265551;28;20119;-70
2022/05/09 07:48:55;;;;;;;17.02;6.00;;;;;;;20.91;71.80;102576.97;5266790;28;20036;-70
2022/05/09 07:51:25;;;;;;;13.63;5.72;;;;;;;20.98;71.74;102578.91;5286547;27;20047;-70
2022/05/09 07:53:56;;;;;;;18.88;7.05;;;;;;;21.64;68.95;102587.78;5286785;28;20108;-70
2022/05/09 07:56:26;;;;;;;13.70;6.43;;;;;;;21.77;69.31;102585.13;5285880;28;20024;-70
2022/05/09 07:58:57;;;;;;;15.80;6.32;;;;;;;22.19;67.13;102586.94;5286661;28;20076;-70
2022/05/09 08:01:27;;;;;;;15.68;6.03;;;;;;;22.18;63.82;102578.91;5286369;28;20104;-70
2022/05/09 08:03:58;;;;;;;16.55;6.03;;;;;;;22.51;64.27;102581.84;5268274;28;20051;-69
2022/05/09 08:06:29;;;;;;;16.95;5.93;;;;;;;22.88;65.34;102577.78;5276677;28;20452;-71
2022/05/09 08:09:01;;;;;;;11.35;5.45;;;;;;;23.05;59.65;102577.41;5272579;28;20038;-70
2022/05/09 08:11:32;;;;;;;15.32;5.90;;;;;;;23.13;61.87;102580.78;5286079;28;20477;-70
2022/05/09 08:14:02;;;;;;;13.65;5.65;;;;;;;23.05;58.49;102583.72;5280587;28;20028;-70
2022/05/09 08:16:33;;;;;;;18.70;5.40;;;;;;;23.03;57.20;102577.59;5272444;27;20238;-70
2022/05/09 08:19:04;;;;;;;14.40;5.97;;;;;;;23.25;58.25;102579.13;5285897;28;20114;-70
2022/05/09 08:21:36;;;;;;;17.88;6.50;;;;;;;23.68;60.26;102578.72;5282904;28;20459;-70
2022/05/09 08:24:08;;;;;;;17.08;6.18;;;;;;;23.71;59.29;102581.06;5265277;28;20020;-71
2022/05/09 08:26:39;;;;;;;13.27;5.50;;;;;;;23.99;59.42;102579.97;5269364;28;20057;-71
2022/05/09 08:29:09;;;;;;;18.27;6.15;;;;;;;23.95;57.84;102576.00;5285610;28;20016;-70
2022/05/09 08:31:40;;;;;;;18.55;5.43;;;;;;;24.74;53.96;102570.22;5285279;27;20035;-71
2022/05/09 08:34:10;;;;;;;16.90;5.43;;;;;;;24.01;54.35;102567.75;5284691;28;20046;-70
2022/05/09 08:36:53;;;;;;;15.20;5.05;;;;;;;24.51;54.22;102567.19;5265169;28;20385;-70
2022/05/09 08:39:26;;;;;;;10.57;4.72;;;;;;;25.19;52.85;102575.69;5267928;28;20058;-71
2022/05/09 08:42:00;;;;;;;12.98;5.53;;;;;;;24.39;52.10;102558.78;5274451;28;20046;-70
2022/05/09 08:44:56;;;;;;;11.27;4.45;;;;;;;23.79;50.60;102558.06;5283815;28;20519;-70
2022/05/09 08:48:05;;;;;;;15.05;4.30;;;;;;;24.04;49.84;102553.59;5271703;28;20027;-70
2022/05/09 08:51:13;;;;;;;19.45;4.63;;;;;;;23.70;52.77;102549.25;5285568;28;20024;-71
2022/05/09 08:53:45;;;;;;;9.55;4.60;;;;;;;23.95;50.86;102559.53;5285681;28;20019;-70
2022/05/09 08:56:16;;;;;;;12.90;4.28;;;;;;;23.93;56.52;102554.25;5275908;28;20032;-70
2022/05/09 08:58:55;;;;;;;13.32;4.10;;;;;;;23.77;53.46;102551.97;5280926;28;20023;-70
2022/05/09 09:01:26;;;;;;;15.38;5.03;;;;;;;23.03;56.98;102550.22;5273565;28;20468;-70
2022/05/09 09:04:01;;;;;;;10.45;4.25;;;;;;;22.97;57.39;102551.06;5283736;28;20046;-70
2022/05/09 09:06:50;;;;;;;12.30;4.03;;;;;;;23.51;52.73;102550.06;5284134;28;20499;-70
2022/05/09 09:09:21;;;;;;;12.27;3.90;;;;;;;23.95;50.48;102548.56;5273640;28;20030;-70
2022/05/09 09:12:35;;;;;;;13.20;4.10;;;;;;;23.79;52.59;102544.38;5281730;28;20114;-70
2022/05/09 09:15:32;;;;;;;7.63;2.97;;;;;;;23.46;50.68;102545.22;5280140;28;20365;-70
2022/05/09 09:18:23;;;;;;;5.55;2.15;;;;;;;23.64;49.79;102539.13;5285016;28;20070;-70
2022/05/09 09:21:21;;;;;;;10.98;3.67;;;;;;;23.63;48.13;102537.44;5284849;28;20501;-70
2022/05/09 09:24:13;;;;;;;7.25;2.83;;;;;;;23.07;52.19;102528.78;5273088;28;20031;-70
2022/05/09 09:27:00;;;;;;;8.25;3.00;;;;;;;23.54;48.24;102530.44;5284836;28;20015;-71
2022/05/09 09:29:36;;;;;;;8.60;2.72;;;;;;;23.95;48.38;102524.75;5270881;28;20024;-70
2022/05/09 09:32:10;;;;;;;6.20;2.80;;;;;;;24.49;46.32;102526.25;5284737;28;20101;-70
2022/05/09 09:34:50;;;;;;;9.88;2.88;;;;;;;25.00;43.45;102525.34;5284868;27;20508;-70
2022/05/09 09:37:35;;;;;;;11.23;2.58;;;;;;;25.88;44.24;102518.88;5271212;28;20031;-70
2022/05/09 09:40:07;;;;;;;6.13;2.30;;;;;;;26.06;43.51;102512.56;5272862;28;20393;-70
2022/05/09 09:42:38;;;;;;;16.08;2.92;;;;;;;25.79;43.20;102518.34;5281586;28;20027;-70
2022/05/09 09:45:19;;;;;;;10.77;3.42;;;;;;;25.93;45.29;102520.94;5273936;28;20028;-70
2022/05/09 09:48:08;;;;;;;7.68;2.47;;;;;;;25.01;43.17;102518.78;5284291;28;20024;-70
2022/05/09 09:51:15;;;;;;;7.22;2.28;;;;;;;24.71;44.83;102514.97;5284003;28;20362;-70
2022/05/09 09:54:04;;;;;;;3.92;2.10;;;;;;;25.34;42.22;102514.09;5284506;28;20030;-70
2022/05/09 09:56:34;;;;;;;7.55;2.40;;;;;;;25.87;42.51;102505.38;5284282;28;20376;-70
2022/05/09 09:59:16;;;;;;;11.25;1.88;;;;;;;25.67;42.52;102502.81;5278544;28;20056;-70
2022/05/09 10:02:05;;;;;;;4.60;2.08;;;;;;;25.47;39.88;102505.75;5262698;28;20038;-70
2022/05/09 10:04:36;;;;;;;8.27;1.88;;;;;;;24.62;41.03;102497.06;5284147;28;20210;-70
2022/05/09 10:07:12;;;;;;;7.10;1.77;;;;;;;24.57;40.86;102494.16;5284182;28;20042;-70
2022/05/09 10:10:14;;;;;;;6.53;1.75;;;;;;;25.10;40.80;102502.03;5284323;28;20059;-70
2022/05/09 10:12:49;;;;;;;7.28;1.85;;;;;;;25.76;38.13;102490.47;5284726;28;20028;-71
2022/05/09 10:15:27;;;;;;;6.72;2.15;;;;;;;25.36;41.78;102498.25;5271718;28;20107;-71
2022/05/09 10:17:59;;;;;;;8.27;1.77;;;;;;;25.67;39.88;102500.06;5277359;28;20028;-70
2022/05/09 10:20:45;;;;;;;9.43;2.25;;;;;;;25.50;40.86;102491.53;5288458;28;20066;-70
2022/05/09 10:26:24;;;;;;;8.00;2.22;;;;;;;24.70;41.23;102483.06;5287256;28;20023;-70
2022/05/09 10:28:59;;;;;;;11.05;2.58;;;;;;;25.00;43.35;102486.03;5278040;28;20477;-70
2022/05/09 10:31:53;;;;;;;8.55;2.78;;;;;;;24.49;41.55;102482.34;5288314;28;20438;-70
2022/05/09 10:34:28;;;;;;;5.95;2.50;;;;;;;25.41;41.05;102480.03;5284535;28;20435;-71
2022/05/09 10:37:07;;;;;;;5.32;2.40;;;;;;;25.62;39.94;102472.41;5278544;28;20030;-70
2022/05/09 10:39:42;;;;;;;7.03;2.35;;;;;;;25.64;42.69;102470.28;5275453;28;20354;-71
2022/05/09 10:42:20;;;;;;;11.60;2.75;;;;;;;25.73;39.30;102464.25;5276139;27;20412;-70
2022/05/09 10:45:04;;;;;;;8.27;2.58;;;;;;;25.16;42.74;102460.81;5267914;28;20393;-70
2022/05/09 10:47:43;;;;;;;6.63;2.28;;;;;;;25.60;43.44;102461.63;5285790;28;20077;-71
2022/05/09 10:50:20;;;;;;;14.50;3.17;;;;;;;25.43;42.85;102452.31;5289047;28;20058;-70
2022/05/09 10:53:28;;;;;;;7.03;2.80;;;;;;;25.37;46.84;102455.97;5289693;27;20074;-70
2022/05/09 10:56:16;;;;;;;8.80;2.90;;;;;;;25.36;43.91;102455.13;5289215;28;20016;-70
2022/05/09 10:59:08;;;;;;;11.32;3.53;;;;;;;25.10;44.41;102447.94;5289439;27;20498;-70
2022/05/09 11:02:00;;;;;;;8.52;2.75;;;;;;;24.52;45.71;102449.00;5275737;28;20024;-70
2022/05/09 11:04:33;;;;;;;7.90;3.40;;;;;;;24.75;46.02;102445.69;5277382;28;20472;-70
2022/05/09 11:07:24;;;;;;;11.43;3.13;;;;;;;24.95;47.24;102441.94;5288830;28;20499;-71
2022/05/09 11:10:19;;;;;;;10.73;3.20;;;;;;;25.24;47.58;102429.47;5288562;28;20700;-70
2022/05/09 11:13:08;;;;;;;6.60;2.65;;;;;;;25.49;48.48;102438.50;5277801;28;20448;-71
2022/05/09 11:15:58;;;;;;;9.80;3.03;;;;;;;25.46;51.52;102430.72;5282779;28;20027;-70
2022/05/09 11:18:44;;;;;;;8.00;3.20;;;;;;;24.68;49.30;102424.84;5288741;28;20030;-70
2022/05/09 11:21:31;;;;;;;7.97;3.20;;;;;;;24.18;46.24;102419.22;5288311;28;20111;-70
2022/05/09 11:24:10;;;;;;;8.50;3.33;;;;;;;24.35;48.28;102414.91;5277567;28;20027;-70
2022/05/09 11:26:50;;;;;;;8.20;3.88;;;;;;;24.44;46.79;102415.50;5269440;28;20038;-71
2022/05/09 11:29:25;;;;;;;11.30;4.00;;;;;;;24.99;47.34;102404.72;5266436;28;20439;-70
2022/05/09 11:32:17;;;;;;;8.30;3.40;;;;;;;25.57;47.09;102413.47;5288891;28;20024;-70
2022/05/09 11:35:25;;;;;;;6.97;3.03;;;;;;;26.05;46.23;102409.09;5287741;28;20027;-70
2022/05/09 11:38:30;;;;;;;11.32;3.65;;;;;;;26.36;46.82;102405.31;5283197;28;20381;-70
2022/05/09 11:41:31;;;;;;;10.23;3.95;;;;;;;25.31;46.88;102416.53;5280436;28;20384;-70
2022/05/09 11:44:19;;;;;;;7.75;3.78;;;;;;;25.34;46.92;102407.81;5280779;28;20028;-70
2022/05/09 11:47:21;;;;;;;11.10;4.25;;;;;;;25.02;47.48;102409.78;5278738;28;20062;-70
2022/05/09 11:50:11;;;;;;;8.35;3.53;;;;;;;25.58;46.35;102397.84;5287973;28;20026;-70
2022/05/09 11:52:44;;;;;;;7.40;3.33;;;;;;;25.07;52.35;102404.50;5281174;28;20432;-70
2022/05/09 11:55:31;;;;;;;11.20;4.07;;;;;;;24.80;50.41;102396.47;5281130;28;20470;-71
2022/05/09 11:58:03;;;;;;;11.35;4.00;;;;;;;24.29;55.66;102393.81;5288421;28;20056;-71
2022/05/09 12:00:33;;;;;;;9.25;3.53;;;;;;;24.72;49.55;102399.47;5288131;28;20022;-71
2022/05/09 12:03:06;;;;;;;8.55;4.20;;;;;;;24.18;53.25;102395.38;5288146;27;20035;-70
2022/05/09 12:05:38;;;;;;;14.63;4.35;;;;;;;24.52;53.11;102394.13;5287668;28;20485;-70
2022/05/09 12:08:08;;;;;;;9.75;4.32;;;;;;;24.86;50.52;102383.75;5287823;28;20027;-71